Time;durP1;ratioP1;P1;durP2;ratioP2;P2;SDS_P1;SDS_P2;PMS_P1;PMS_P2;Temp;Humidity;BMP_temperature;BMP_pressure;BME280_temperature;BME280_humidity;BME280_pressure;Samples;Min_cycle;Max_cycle;Signal;HPM_P1;HPM_P2
2023/11/04 00:00:44;;;;;;;4.05;1.48;;;;;;;;;;5073359;28;20071;-60
2023/11/04 00:03:13;;;;;;;2.42;1.25;;;;;;;;;;5056026;28;20064;-59
2023/11/04 00:05:41;;;;;;;3.20;1.08;;;;;;;;;;5065840;28;20051;-59
2023/11/04 00:08:08;;;;;;;4.03;1.30;;;;;;;;;;5065124;28;20508;-60
2023/11/04 00:10:38;;;;;;;3.58;1.35;;;;;;;;;;5066985;28;20052;-60
2023/11/04 00:13:09;;;;;;;2.65;0.90;;;;;;;;;;5087194;28;20049;-60
2023/11/04 00:15:36;;;;;;;2.58;1.08;;;;;;;;;;5072879;28;20449;-59
2023/11/04 00:18:03;;;;;;;3.55;1.40;;;;;;;;;;5073781;28;20057;-59
2023/11/04 00:20:34;;;;;;;5.55;1.48;;;;;;;;;;5071161;28;20064;-59
2023/11/04 00:23:01;;;;;;;4.43;1.30;;;;;;;;;;5069988;28;20053;-59
2023/11/04 00:25:33;;;;;;;2.10;1.20;;;;;;;;;;5074132;28;20398;-59
2023/11/04 00:28:01;;;;;;;3.38;1.40;;;;;;;;;;5072863;28;20052;-60
2023/11/04 00:30:31;;;;;;;4.18;1.17;;;;;;;;;;5072591;28;20124;-60
2023/11/04 00:32:58;;;;;;;3.30;1.50;;;;;;;;;;5074744;28;20048;-59
2023/11/04 00:35:25;;;;;;;3.40;1.05;;;;;;;;;;5065728;28;20084;-59
2023/11/04 00:37:53;;;;;;;2.17;0.90;;;;;;;;;;5077859;28;20062;-59
2023/11/04 00:40:20;;;;;;;4.38;1.20;;;;;;;;;;5060641;28;20045;-60
2023/11/04 00:42:47;;;;;;;2.30;1.10;;;;;;;;;;5061423;28;20497;-60
2023/11/04 00:45:14;;;;;;;5.38;1.10;;;;;;;;;;5072963;28;20059;-59
2023/11/04 00:47:40;;;;;;;3.40;1.02;;;;;;;;;;5074649;28;20045;-60
2023/11/04 00:50:07;;;;;;;2.67;0.90;;;;;;;;;;5058826;28;20517;-59
2023/11/04 00:52:36;;;;;;;3.05;1.13;;;;;;;;;;5067872;28;20067;-59
2023/11/04 00:55:05;;;;;;;3.17;1.05;;;;;;;;;;5058864;28;20056;-59
2023/11/04 00:57:32;;;;;;;3.22;1.25;;;;;;;;;;5070721;28;20048;-60
2023/11/04 00:59:58;;;;;;;4.57;1.35;;;;;;;;;;5051956;28;20474;-60
2023/11/04 01:02:25;;;;;;;3.03;1.00;;;;;;;;;;5071185;28;20044;-59
2023/11/04 01:04:52;;;;;;;2.08;0.90;;;;;;;;;;5059630;28;20057;-59
2023/11/04 01:07:19;;;;;;;3.75;1.10;;;;;;;;;;5063798;28;20055;-60
2023/11/04 01:09:46;;;;;;;3.03;0.90;;;;;;;;;;5057404;28;20053;-59
2023/11/04 01:12:14;;;;;;;4.32;1.10;;;;;;;;;;5057170;28;20053;-60
2023/11/04 01:14:41;;;;;;;1.58;0.90;;;;;;;;;;5058379;28;20049;-60
2023/11/04 01:17:08;;;;;;;2.35;0.90;;;;;;;;;;5073118;28;20390;-60
2023/11/04 01:19:36;;;;;;;2.45;1.05;;;;;;;;;;5063195;28;20053;-59
2023/11/04 01:22:02;;;;;;;2.88;1.15;;;;;;;;;;5056216;28;20052;-59
2023/11/04 01:24:32;;;;;;;4.05;1.00;;;;;;;;;;5071242;28;20053;-59
2023/11/04 01:26:59;;;;;;;2.55;0.70;;;;;;;;;;5070704;28;20056;-60
2023/11/04 01:29:29;;;;;;;3.78;1.10;;;;;;;;;;5063630;28;20044;-59
2023/11/04 01:31:56;;;;;;;2.70;1.00;;;;;;;;;;5059253;28;20075;-59
2023/11/04 01:34:25;;;;;;;2.80;0.95;;;;;;;;;;5051238;28;20049;-59
2023/11/04 01:36:52;;;;;;;4.22;1.17;;;;;;;;;;5071299;28;20048;-59
2023/11/04 01:39:19;;;;;;;2.70;1.02;;;;;;;;;;5070141;28;20048;-59
2023/11/04 01:41:46;;;;;;;2.33;0.80;;;;;;;;;;5058774;28;20116;-59
2023/11/04 01:44:13;;;;;;;2.28;1.00;;;;;;;;;;5070758;28;20064;-60
2023/11/04 01:46:41;;;;;;;3.65;1.20;;;;;;;;;;5071824;28;20051;-59
2023/11/04 01:49:10;;;;;;;3.13;0.80;;;;;;;;;;5071421;28;20060;-59
2023/11/04 01:51:37;;;;;;;2.05;0.85;;;;;;;;;;5061849;28;20513;-59
2023/11/04 01:54:04;;;;;;;1.92;0.95;;;;;;;;;;5071444;28;20063;-60
2023/11/04 01:56:33;;;;;;;1.73;0.70;;;;;;;;;;5057081;28;20052;-59
2023/11/04 01:59:00;;;;;;;1.90;0.80;;;;;;;;;;5061657;28;20051;-59
2023/11/04 02:01:27;;;;;;;2.97;0.90;;;;;;;;;;5062083;28;20052;-60
2023/11/04 02:03:55;;;;;;;1.83;0.70;;;;;;;;;;5056898;28;20057;-59
2023/11/04 02:06:23;;;;;;;2.20;1.02;;;;;;;;;;5066555;28;20056;-60
2023/11/04 02:08:50;;;;;;;3.75;1.05;;;;;;;;;;5068960;28;20048;-59
2023/11/04 02:11:16;;;;;;;2.75;0.90;;;;;;;;;;5059955;28;20397;-59
2023/11/04 02:13:44;;;;;;;3.72;1.00;;;;;;;;;;5069323;28;20055;-59
2023/11/04 02:16:10;;;;;;;1.80;1.10;;;;;;;;;;5069477;28;20119;-60
2023/11/04 02:18:41;;;;;;;2.25;0.80;;;;;;;;;;5066113;28;20076;-60
2023/11/04 02:21:09;;;;;;;2.05;0.85;;;;;;;;;;5069920;28;20048;-60
2023/11/04 02:23:40;;;;;;;3.47;0.98;;;;;;;;;;5062107;28;20515;-59
2023/11/04 02:26:06;;;;;;;2.60;1.00;;;;;;;;;;5068260;28;20059;-59
2023/11/04 02:28:33;;;;;;;2.97;1.10;;;;;;;;;;5063501;28;20052;-59
2023/11/04 02:31:00;;;;;;;1.13;0.70;;;;;;;;;;5053698;28;20473;-59
2023/11/04 02:33:27;;;;;;;1.80;0.80;;;;;;;;;;5063264;28;20416;-60
2023/11/04 02:35:54;;;;;;;2.67;1.00;;;;;;;;;;5067584;28;20152;-59
2023/11/04 02:38:22;;;;;;;1.52;0.73;;;;;;;;;;5070729;28;20048;-59
2023/11/04 02:40:49;;;;;;;1.97;0.80;;;;;;;;;;5070328;28;20045;-59
2023/11/04 02:43:16;;;;;;;2.60;0.90;;;;;;;;;;5060316;28;20049;-59
2023/11/04 02:45:43;;;;;;;4.00;0.95;;;;;;;;;;5053719;28;20044;-59
2023/11/04 02:48:10;;;;;;;1.73;0.70;;;;;;;;;;5053200;28;20473;-59
2023/11/04 02:50:37;;;;;;;1.70;0.70;;;;;;;;;;5083067;28;20071;-59
2023/11/04 02:53:09;;;;;;;1.63;0.88;;;;;;;;;;5090469;28;20559;-59
2023/11/04 02:55:37;;;;;;;2.70;0.68;;;;;;;;;;5073606;28;20059;-59
2023/11/04 02:58:04;;;;;;;1.50;0.77;;;;;;;;;;5088918;28;20063;-60
2023/11/04 03:00:30;;;;;;;1.60;0.80;;;;;;;;;;5090825;28;20048;-59
2023/11/04 03:02:57;;;;;;;2.38;0.60;;;;;;;;;;5092423;28;20056;-59
2023/11/04 03:05:24;;;;;;;1.67;0.70;;;;;;;;;;5075327;28;20060;-59
2023/11/04 03:07:53;;;;;;;1.77;0.50;;;;;;;;;;5084218;28;20052;-62
2023/11/04 03:10:20;;;;;;;1.70;0.80;;;;;;;;;;5091861;28;20056;-59
2023/11/04 03:12:48;;;;;;;3.20;1.00;;;;;;;;;;5088794;28;20508;-59
2023/11/04 03:15:20;;;;;;;2.17;0.60;;;;;;;;;;5091224;28;20070;-59
2023/11/04 03:17:46;;;;;;;1.15;0.70;;;;;;;;;;5082837;28;20052;-58
2023/11/04 03:20:13;;;;;;;1.10;0.70;;;;;;;;;;5083133;28;20052;-59
2023/11/04 03:22:40;;;;;;;3.63;1.08;;;;;;;;;;5093624;28;20048;-59
2023/11/04 03:25:08;;;;;;;1.60;0.60;;;;;;;;;;5092518;28;20056;-59
2023/11/04 03:27:35;;;;;;;1.33;0.50;;;;;;;;;;5094354;28;20048;-59
2023/11/04 03:30:04;;;;;;;2.38;0.80;;;;;;;;;;5096176;28;20056;-59
2023/11/04 03:32:31;;;;;;;1.20;0.60;;;;;;;;;;5094410;28;20405;-60
2023/11/04 03:34:58;;;;;;;1.10;0.60;;;;;;;;;;5092247;28;20509;-59
2023/11/04 03:37:24;;;;;;;1.55;0.88;;;;;;;;;;5091623;28;20137;-59
2023/11/04 03:39:52;;;;;;;2.88;0.70;;;;;;;;;;5091318;28;20056;-59
2023/11/04 03:42:19;;;;;;;1.08;0.50;;;;;;;;;;5092896;28;20059;-60
2023/11/04 03:44:46;;;;;;;1.65;0.95;;;;;;;;;;5092266;28;20052;-60
2023/11/04 03:47:14;;;;;;;3.15;1.02;;;;;;;;;;5093337;28;20063;-59
2023/11/04 03:49:41;;;;;;;2.00;0.82;;;;;;;;;;5077854;28;20052;-59
2023/11/04 03:52:09;;;;;;;2.00;0.60;;;;;;;;;;5088210;28;20043;-59
2023/11/04 03:54:36;;;;;;;1.75;0.70;;;;;;;;;;5101780;28;20044;-60
2023/11/04 03:57:02;;;;;;;1.40;0.80;;;;;;;;;;5081425;28;20056;-59
2023/11/04 03:59:29;;;;;;;1.45;0.60;;;;;;;;;;5092459;28;20047;-59
2023/11/04 04:01:56;;;;;;;1.40;0.80;;;;;;;;;;5079380;28;20048;-59
2023/11/04 04:04:24;;;;;;;2.72;0.80;;;;;;;;;;5087298;28;20048;-59
2023/11/04 04:06:52;;;;;;;1.58;0.68;;;;;;;;;;5089512;28;20079;-59
2023/11/04 04:09:18;;;;;;;1.77;0.73;;;;;;;;;;5094487;28;20048;-60
2023/11/04 04:11:45;;;;;;;1.48;0.60;;;;;;;;;;5082481;28;20052;-60
2023/11/04 04:14:12;;;;;;;1.40;0.73;;;;;;;;;;5088927;28;20048;-59
2023/11/04 04:16:39;;;;;;;2.03;0.95;;;;;;;;;;5093439;28;20048;-59
2023/11/04 04:19:05;;;;;;;1.70;0.70;;;;;;;;;;5093463;28;20049;-58
2023/11/04 04:21:34;;;;;;;1.20;0.60;;;;;;;;;;5084121;28;20040;-59
2023/11/04 04:24:00;;;;;;;1.20;0.63;;;;;;;;;;5075684;28;20457;-59
2023/11/04 04:26:27;;;;;;;3.60;0.82;;;;;;;;;;5076062;28;20587;-59
2023/11/04 04:28:54;;;;;;;1.85;0.80;;;;;;;;;;5091221;28;20052;-59
2023/11/04 04:31:22;;;;;;;3.55;0.90;;;;;;;;;;5092185;28;20075;-59
2023/11/04 04:33:49;;;;;;;2.55;0.75;;;;;;;;;;5074135;28;20063;-59
2023/11/04 04:36:15;;;;;;;1.10;0.63;;;;;;;;;;5094563;28;20059;-60
2023/11/04 04:38:44;;;;;;;1.70;0.70;;;;;;;;;;5098385;28;20063;-59
2023/11/04 04:41:11;;;;;;;2.20;0.90;;;;;;;;;;5094811;28;20052;-59
2023/11/04 04:43:38;;;;;;;2.15;0.73;;;;;;;;;;5094829;28;20052;-59
2023/11/04 04:46:05;;;;;;;1.20;0.70;;;;;;;;;;5081009;28;20063;-60
2023/11/04 04:48:33;;;;;;;2.55;0.88;;;;;;;;;;5090637;28;20047;-60
2023/11/04 04:51:00;;;;;;;2.20;1.05;;;;;;;;;;5068478;28;20528;-59
2023/11/04 04:53:27;;;;;;;1.90;0.90;;;;;;;;;;5056009;28;20066;-59
2023/11/04 04:55:55;;;;;;;2.63;0.70;;;;;;;;;;5057643;28;20057;-59
2023/11/04 04:58:22;;;;;;;2.08;0.85;;;;;;;;;;5074279;28;20053;-59
2023/11/04 05:00:49;;;;;;;1.42;0.77;;;;;;;;;;5070059;28;20052;-60
2023/11/04 05:03:15;;;;;;;1.42;0.80;;;;;;;;;;5059488;28;20052;-60
2023/11/04 05:05:42;;;;;;;1.20;0.70;;;;;;;;;;5056103;28;20417;-59
2023/11/04 05:08:10;;;;;;;2.70;0.98;;;;;;;;;;5067778;28;20473;-60
2023/11/04 05:10:36;;;;;;;1.73;0.80;;;;;;;;;;5063007;28;20382;-60
2023/11/04 05:13:04;;;;;;;2.35;1.10;;;;;;;;;;5064313;28;20060;-59
2023/11/04 05:15:31;;;;;;;1.30;0.77;;;;;;;;;;5059452;28;20405;-59
2023/11/04 05:17:59;;;;;;;1.85;0.65;;;;;;;;;;5070456;28;20056;-59
2023/11/04 05:20:26;;;;;;;2.25;1.00;;;;;;;;;;5053900;28;20053;-59
2023/11/04 05:22:52;;;;;;;1.40;0.70;;;;;;;;;;5070547;28;20044;-60
2023/11/04 05:25:19;;;;;;;1.73;0.77;;;;;;;;;;5063350;28;20049;-59
2023/11/04 05:27:46;;;;;;;3.13;1.08;;;;;;;;;;5071835;28;20059;-60
2023/11/04 05:30:14;;;;;;;2.78;1.13;;;;;;;;;;5059775;28;20063;-59
2023/11/04 05:32:41;;;;;;;1.70;0.80;;;;;;;;;;5072110;28;20485;-59
2023/11/04 05:35:09;;;;;;;2.38;0.95;;;;;;;;;;5063327;28;20053;-59
2023/11/04 05:37:35;;;;;;;2.00;0.95;;;;;;;;;;5069707;28;20383;-60
2023/11/04 05:40:05;;;;;;;2.13;1.00;;;;;;;;;;5080330;28;20056;-59
2023/11/04 05:42:32;;;;;;;1.70;0.98;;;;;;;;;;5061179;28;20501;-59
2023/11/04 05:44:58;;;;;;;1.75;0.80;;;;;;;;;;5054939;28;20717;-59
2023/11/04 05:47:27;;;;;;;3.22;1.15;;;;;;;;;;5055317;28;20056;-60
2023/11/04 05:49:53;;;;;;;1.80;0.90;;;;;;;;;;5071126;28;20051;-59
2023/11/04 05:52:20;;;;;;;2.67;1.10;;;;;;;;;;5091703;28;20044;-60
2023/11/04 05:54:47;;;;;;;2.40;0.85;;;;;;;;;;5076931;28;20052;-62
2023/11/04 05:57:15;;;;;;;1.60;0.82;;;;;;;;;;5093041;28;20532;-59
2023/11/04 05:59:43;;;;;;;1.60;0.85;;;;;;;;;;5091724;28;20092;-59
2023/11/04 06:02:09;;;;;;;1.90;1.00;;;;;;;;;;5084620;28;20062;-59
2023/11/04 06:04:37;;;;;;;2.63;0.90;;;;;;;;;;5076208;28;20049;-59
2023/11/04 06:07:05;;;;;;;1.40;0.80;;;;;;;;;;5080625;28;20044;-58
2023/11/04 06:09:32;;;;;;;1.45;0.85;;;;;;;;;;5102584;28;20059;-59
2023/11/04 06:11:59;;;;;;;2.03;0.90;;;;;;;;;;5072562;28;20060;-59
2023/11/04 06:14:26;;;;;;;1.70;0.90;;;;;;;;;;5087171;28;20052;-59
2023/11/04 06:16:53;;;;;;;1.10;0.70;;;;;;;;;;5092875;28;20056;-58
2023/11/04 06:19:20;;;;;;;1.45;0.75;;;;;;;;;;5079136;28;20054;-59
2023/11/04 06:21:48;;;;;;;2.22;0.90;;;;;;;;;;5091139;28;20051;-59
2023/11/04 06:24:14;;;;;;;4.88;0.90;;;;;;;;;;5087236;28;20081;-60
2023/11/04 06:26:40;;;;;;;2.95;0.85;;;;;;;;;;5083885;28;20048;-58
2023/11/04 06:29:07;;;;;;;1.75;0.80;;;;;;;;;;5073817;28;20060;-58
2023/11/04 06:31:34;;;;;;;1.65;0.73;;;;;;;;;;5090449;28;20059;-59
2023/11/04 06:34:01;;;;;;;2.33;0.82;;;;;;;;;;5086973;28;20059;-59
2023/11/04 06:36:31;;;;;;;1.55;0.68;;;;;;;;;;5083385;28;20424;-59
2023/11/04 06:38:59;;;;;;;2.63;0.90;;;;;;;;;;5085771;28;20052;-59
2023/11/04 06:41:26;;;;;;;1.67;0.75;;;;;;;;;;5072853;28;20063;-58
2023/11/04 06:43:54;;;;;;;1.73;0.70;;;;;;;;;;5087817;28;20484;-58
2023/11/04 06:46:20;;;;;;;1.73;0.70;;;;;;;;;;5091094;28;20059;-59
2023/11/04 06:48:47;;;;;;;1.10;0.70;;;;;;;;;;5090326;28;20044;-60
2023/11/04 06:51:17;;;;;;;2.25;1.02;;;;;;;;;;5085422;28;20048;-59
2023/11/04 06:53:44;;;;;;;1.88;0.85;;;;;;;;;;5074670;28;20417;-59
2023/11/04 06:56:13;;;;;;;2.33;0.75;;;;;;;;;;5086705;28;20469;-59
2023/11/04 06:58:40;;;;;;;1.25;0.63;;;;;;;;;;5073865;28;20052;-59
2023/11/04 07:01:07;;;;;;;1.35;0.68;;;;;;;;;;5087567;28;20056;-60
2023/11/04 07:03:34;;;;;;;1.52;0.80;;;;;;;;;;5090462;28;20059;-60
2023/11/04 07:06:01;;;;;;;1.40;0.77;;;;;;;;;;5077431;28;20052;-58
2023/11/04 07:08:28;;;;;;;3.22;0.90;;;;;;;;;;5086495;28;20060;-59
2023/11/04 07:10:55;;;;;;;2.00;0.65;;;;;;;;;;5091285;28;20048;-59
2023/11/04 07:13:23;;;;;;;1.48;0.82;;;;;;;;;;5091242;28;20058;-59
2023/11/04 07:15:50;;;;;;;2.03;0.82;;;;;;;;;;5077806;28;20056;-59
2023/11/04 07:18:17;;;;;;;1.60;0.80;;;;;;;;;;5090335;28;20052;-59
2023/11/04 07:20:46;;;;;;;1.60;0.70;;;;;;;;;;5081010;28;20052;-58
2023/11/04 07:23:13;;;;;;;1.80;0.77;;;;;;;;;;5086671;28;20051;-58
2023/11/04 07:25:40;;;;;;;1.38;0.82;;;;;;;;;;5112347;28;20050;-59
2023/11/04 07:28:07;;;;;;;1.88;0.70;;;;;;;;;;5112575;28;20047;-59
2023/11/04 07:30:36;;;;;;;1.45;0.95;;;;;;;;;;5093369;28;20059;-60
2023/11/04 07:33:02;;;;;;;1.40;0.80;;;;;;;;;;5092099;28;20055;-60
2023/11/04 07:35:29;;;;;;;1.67;0.80;;;;;;;;;;5091997;28;20052;-59
2023/11/04 07:37:57;;;;;;;1.70;0.80;;;;;;;;;;5086448;28;20076;-59
2023/11/04 07:40:24;;;;;;;1.08;0.63;;;;;;;;;;5072026;28;20490;-59
2023/11/04 07:42:51;;;;;;;2.58;0.80;;;;;;;;;;5071638;28;20068;-59
2023/11/04 07:45:17;;;;;;;3.33;0.90;;;;;;;;;;5071686;28;20052;-59
2023/11/04 07:47:46;;;;;;;2.78;0.70;;;;;;;;;;5078018;28;20048;-59
2023/11/04 07:50:13;;;;;;;1.25;0.82;;;;;;;;;;5081422;28;20048;-59
2023/11/04 07:52:41;;;;;;;1.60;0.98;;;;;;;;;;5083235;28;20060;-59
2023/11/04 07:55:08;;;;;;;2.05;1.00;;;;;;;;;;5080370;28;20401;-58
2023/11/04 07:57:36;;;;;;;2.38;0.85;;;;;;;;;;5083032;28;20049;-59
2023/11/04 08:00:05;;;;;;;2.60;0.93;;;;;;;;;;5086299;28;20052;-59
2023/11/04 08:02:32;;;;;;;1.42;0.70;;;;;;;;;;5082691;28;20052;-59
2023/11/04 08:05:00;;;;;;;2.25;1.13;;;;;;;;;;5090142;28;20040;-59
2023/11/04 08:07:27;;;;;;;1.73;0.80;;;;;;;;;;5101940;28;20058;-59
2023/11/04 08:09:54;;;;;;;1.50;1.00;;;;;;;;;;5089792;28;20481;-59
2023/11/04 08:12:21;;;;;;;1.55;0.80;;;;;;;;;;5080937;28;20412;-59
2023/11/04 08:14:48;;;;;;;1.85;0.80;;;;;;;;;;5090033;28;20051;-59
2023/11/04 08:17:15;;;;;;;2.92;1.02;;;;;;;;;;5093234;28;20052;-59
2023/11/04 08:19:42;;;;;;;2.60;1.00;;;;;;;;;;5078516;28;20485;-59
2023/11/04 08:22:11;;;;;;;2.47;0.80;;;;;;;;;;5094209;28;20504;-59
2023/11/04 08:24:38;;;;;;;1.80;1.08;;;;;;;;;;5082584;28;20496;-59
2023/11/04 08:27:04;;;;;;;1.80;0.90;;;;;;;;;;5089139;28;20052;-59
2023/11/04 08:29:31;;;;;;;2.25;0.90;;;;;;;;;;5108905;28;20059;-59
2023/11/04 08:31:58;;;;;;;1.70;0.80;;;;;;;;;;5084678;28;20497;-59
2023/11/04 08:34:25;;;;;;;2.47;1.02;;;;;;;;;;5104892;28;20052;-59
2023/11/04 08:36:52;;;;;;;1.40;0.82;;;;;;;;;;5093109;28;20067;-60
2023/11/04 08:39:20;;;;;;;2.10;1.00;;;;;;;;;;5078019;28;20378;-60
2023/11/04 08:41:47;;;;;;;1.70;0.90;;;;;;;;;;5094575;28;20055;-58
2023/11/04 08:44:14;;;;;;;1.38;0.80;;;;;;;;;;5094381;28;20067;-60
2023/11/04 08:46:41;;;;;;;2.38;0.93;;;;;;;;;;5080881;28;20057;-59
2023/11/04 08:49:08;;;;;;;1.42;0.80;;;;;;;;;;5092416;28;20516;-59
2023/11/04 08:51:35;;;;;;;2.05;0.90;;;;;;;;;;5090583;28;20376;-59
2023/11/04 08:54:01;;;;;;;2.50;0.80;;;;;;;;;;5094559;28;20051;-61
2023/11/04 08:56:30;;;;;;;1.60;0.90;;;;;;;;;;5090866;28;20044;-61
2023/11/04 08:58:57;;;;;;;2.03;0.90;;;;;;;;;;5083029;28;20049;-62
2023/11/04 09:01:25;;;;;;;1.60;0.88;;;;;;;;;;5092309;28;20059;-61
2023/11/04 09:03:55;;;;;;;1.50;0.95;;;;;;;;;;5090484;28;20063;-61
2023/11/04 09:06:22;;;;;;;2.67;1.55;;;;;;;;;;5092432;28;20052;-61
2023/11/04 09:08:49;;;;;;;2.65;0.90;;;;;;;;;;5092579;28;20476;-61
2023/11/04 09:11:16;;;;;;;2.88;1.00;;;;;;;;;;5092209;28;20692;-61
2023/11/04 09:13:44;;;;;;;2.30;0.90;;;;;;;;;;5092744;28;20055;-62
2023/11/04 09:16:13;;;;;;;1.08;0.70;;;;;;;;;;5093129;28;20067;-63
2023/11/04 09:18:40;;;;;;;3.05;0.90;;;;;;;;;;5093197;28;20056;-63
2023/11/04 09:21:07;;;;;;;1.85;0.90;;;;;;;;;;5094268;28;20047;-61
2023/11/04 09:23:34;;;;;;;3.42;0.77;;;;;;;;;;5093979;28;20452;-61
2023/11/04 09:26:01;;;;;;;1.80;0.82;;;;;;;;;;5093918;28;20051;-61
2023/11/04 09:28:27;;;;;;;1.77;0.77;;;;;;;;;;5094190;28;20055;-61
2023/11/04 09:30:56;;;;;;;1.27;0.57;;;;;;;;;;5094000;28;20059;-61
2023/11/04 09:33:23;;;;;;;2.03;0.95;;;;;;;;;;5093911;28;20055;-61
2023/11/04 09:35:49;;;;;;;1.52;0.80;;;;;;;;;;5093975;28;20056;-62
2023/11/04 09:38:16;;;;;;;1.40;0.77;;;;;;;;;;5093663;28;20052;-62
2023/11/04 09:40:43;;;;;;;2.15;0.70;;;;;;;;;;5093767;28;20051;-62
2023/11/04 09:43:11;;;;;;;2.08;0.73;;;;;;;;;;5093751;28;20063;-61
2023/11/04 09:45:37;;;;;;;2.28;0.90;;;;;;;;;;5093613;28;20374;-63
2023/11/04 09:48:06;;;;;;;1.60;0.80;;;;;;;;;;5093065;28;20078;-63
2023/11/04 09:50:33;;;;;;;2.17;0.93;;;;;;;;;;5093099;28;20528;-63
2023/11/04 09:53:00;;;;;;;1.80;0.80;;;;;;;;;;5092956;28;20052;-62
2023/11/04 09:55:27;;;;;;;2.72;0.98;;;;;;;;;;5092992;28;20059;-62
2023/11/04 09:57:55;;;;;;;1.85;0.70;;;;;;;;;;5093474;28;20059;-62
2023/11/04 10:00:23;;;;;;;1.75;0.80;;;;;;;;;;5093445;28;20508;-62
2023/11/04 10:02:50;;;;;;;1.88;1.00;;;;;;;;;;5093243;28;20063;-63
2023/11/04 10:05:18;;;;;;;1.88;0.90;;;;;;;;;;5092999;28;20048;-63
2023/11/04 10:07:45;;;;;;;1.95;1.02;;;;;;;;;;5092978;28;20060;-61
2023/11/04 10:10:13;;;;;;;2.42;0.90;;;;;;;;;;5093128;28;20123;-61
2023/11/04 10:12:40;;;;;;;2.30;0.90;;;;;;;;;;5092616;28;20420;-62
2023/11/04 10:15:07;;;;;;;2.17;1.00;;;;;;;;;;5092878;28;20071;-61
2023/11/04 10:17:34;;;;;;;2.08;0.93;;;;;;;;;;5092796;28;20473;-62
2023/11/04 10:20:07;;;;;;;1.98;0.90;;;;;;;;;;5093278;28;20052;-62
2023/11/04 10:22:35;;;;;;;1.90;0.70;;;;;;;;;;5093075;28;20059;-62
2023/11/04 10:25:03;;;;;;;1.50;0.80;;;;;;;;;;5092892;28;20052;-62
2023/11/04 10:27:29;;;;;;;3.40;0.95;;;;;;;;;;5093112;28;20059;-62
2023/11/04 10:29:56;;;;;;;1.70;0.77;;;;;;;;;;5092534;28;20052;-62
2023/11/04 10:32:25;;;;;;;3.33;1.25;;;;;;;;;;5092048;28;20060;-62
2023/11/04 10:34:54;;;;;;;1.42;0.70;;;;;;;;;;5092959;28;20052;-62
2023/11/04 10:37:21;;;;;;;1.75;0.75;;;;;;;;;;5092508;28;20048;-63
2023/11/04 10:39:51;;;;;;;2.67;0.90;;;;;;;;;;5092395;28;20052;-62
2023/11/04 10:42:19;;;;;;;1.83;0.80;;;;;;;;;;5092485;28;20052;-62
2023/11/04 10:44:48;;;;;;;2.33;1.00;;;;;;;;;;5092520;28;20143;-62
2023/11/04 10:47:21;;;;;;;2.33;1.00;;;;;;;;;;5092377;28;20062;-63
2023/11/04 10:49:51;;;;;;;2.38;0.90;;;;;;;;;;5092181;28;20051;-62
2023/11/04 10:52:18;;;;;;;2.03;1.15;;;;;;;;;;5093217;28;20059;-62
2023/11/04 10:54:47;;;;;;;2.38;0.93;;;;;;;;;;5092482;28;20052;-62
2023/11/04 10:57:19;;;;;;;3.03;0.90;;;;;;;;;;5092284;28;20048;-62
2023/11/04 10:59:52;;;;;;;3.30;1.48;;;;;;;;;;5092183;28;20493;-62
2023/11/04 11:02:20;;;;;;;2.15;0.90;;;;;;;;;;5092109;28;20583;-61
2023/11/04 11:04:47;;;;;;;1.80;0.82;;;;;;;;;;5091794;28;20051;-62
2023/11/04 11:07:18;;;;;;;2.13;0.90;;;;;;;;;;5091889;28;20055;-62
2023/11/04 11:09:45;;;;;;;1.55;0.77;;;;;;;;;;5091907;28;20056;-62
2023/11/04 11:12:15;;;;;;;2.80;0.90;;;;;;;;;;5092323;28;20055;-62
2023/11/04 11:14:44;;;;;;;2.38;0.90;;;;;;;;;;5092258;28;20052;-62
2023/11/04 11:17:10;;;;;;;1.65;0.98;;;;;;;;;;5091864;28;20500;-62
2023/11/04 11:19:45;;;;;;;2.20;0.80;;;;;;;;;;5091864;28;20056;-62
2023/11/04 11:22:21;;;;;;;2.80;1.00;;;;;;;;;;5091755;28;20048;-61
2023/11/04 11:24:48;;;;;;;3.38;1.10;;;;;;;;;;5092227;28;20374;-62
2023/11/04 11:27:15;;;;;;;2.10;1.00;;;;;;;;;;5092118;28;20170;-62
2023/11/04 11:29:47;;;;;;;1.80;0.80;;;;;;;;;;5092319;28;20052;-61
2023/11/04 11:32:14;;;;;;;2.30;0.93;;;;;;;;;;5091500;28;20066;-61
2023/11/04 11:34:50;;;;;;;3.58;1.15;;;;;;;;;;5091857;28;20048;-62
2023/11/04 11:37:18;;;;;;;3.97;1.23;;;;;;;;;;5091695;28;20445;-62
2023/11/04 11:39:45;;;;;;;3.15;0.90;;;;;;;;;;5091738;28;20159;-62
2023/11/04 11:42:12;;;;;;;1.95;1.02;;;;;;;;;;5092607;28;20048;-62
2023/11/04 11:44:40;;;;;;;2.67;1.13;;;;;;;;;;5095793;28;20051;-62
2023/11/04 11:47:08;;;;;;;4.72;1.00;;;;;;;;;;5095947;28;20405;-62
2023/11/04 11:49:35;;;;;;;5.22;1.20;;;;;;;;;;5095360;28;20056;-62
2023/11/04 11:52:04;;;;;;;5.07;1.40;;;;;;;;;;5096092;28;20048;-62
2023/11/04 11:54:32;;;;;;;2.38;1.05;;;;;;;;;;5095749;28;20400;-62
2023/11/04 11:56:59;;;;;;;2.90;1.20;;;;;;;;;;5095498;28;20064;-63
2023/11/04 11:59:27;;;;;;;2.47;1.00;;;;;;;;;;5095619;28;20052;-64
2023/11/04 12:01:53;;;;;;;2.90;1.10;;;;;;;;;;5095422;28;20059;-62
2023/11/04 12:04:22;;;;;;;2.13;0.85;;;;;;;;;;5095517;28;20075;-62
2023/11/04 12:06:50;;;;;;;2.35;1.17;;;;;;;;;;5095255;28;20048;-62
2023/11/04 12:09:19;;;;;;;2.17;1.02;;;;;;;;;;5095502;28;20166;-62
2023/11/04 12:11:46;;;;;;;3.28;0.90;;;;;;;;;;5095707;28;20063;-62
2023/11/04 12:14:12;;;;;;;1.67;0.82;;;;;;;;;;5094957;28;20056;-62
2023/11/04 12:16:39;;;;;;;3.33;1.20;;;;;;;;;;5095192;28;20048;-62
2023/11/04 12:19:06;;;;;;;2.15;0.90;;;;;;;;;;5095017;28;20401;-62
2023/11/04 12:21:34;;;;;;;1.92;0.90;;;;;;;;;;5095123;28;20048;-62
2023/11/04 12:24:02;;;;;;;1.70;0.70;;;;;;;;;;5094874;28;20067;-62
2023/11/04 12:26:31;;;;;;;4.07;1.05;;;;;;;;;;5094930;28;20059;-62
2023/11/04 12:28:59;;;;;;;2.33;0.80;;;;;;;;;;5086668;28;20351;-62
2023/11/04 12:31:27;;;;;;;3.25;1.00;;;;;;;;;;5094942;28;20059;-63
2023/11/04 12:33:55;;;;;;;2.28;0.70;;;;;;;;;;5095290;28;20059;-63
2023/11/04 12:36:22;;;;;;;1.30;0.73;;;;;;;;;;5094753;28;20055;-62
2023/11/04 12:38:49;;;;;;;1.45;0.80;;;;;;;;;;5094482;28;20059;-63
2023/11/04 12:41:17;;;;;;;2.85;1.00;;;;;;;;;;5094520;28;20078;-63
2023/11/04 12:43:44;;;;;;;2.00;0.73;;;;;;;;;;5094613;28;20078;-63
2023/11/04 12:46:11;;;;;;;3.53;0.80;;;;;;;;;;5094110;28;20056;-63
2023/11/04 12:48:38;;;;;;;2.63;0.80;;;;;;;;;;5094445;28;20059;-63
2023/11/04 12:51:06;;;;;;;2.20;0.75;;;;;;;;;;5093738;28;20500;-63
2023/11/04 12:53:34;;;;;;;2.35;0.80;;;;;;;;;;5110615;28;20055;-63
2023/11/04 12:56:02;;;;;;;2.38;0.70;;;;;;;;;;5115008;28;20056;-63
2023/11/04 12:58:31;;;;;;;1.23;0.70;;;;;;;;;;5114902;28;20095;-63
2023/11/04 13:00:58;;;;;;;1.88;0.70;;;;;;;;;;5114822;28;20062;-63
2023/11/04 13:03:25;;;;;;;3.33;0.75;;;;;;;;;;5114764;28;20059;-62
2023/11/04 13:05:53;;;;;;;1.75;0.85;;;;;;;;;;5115112;28;20070;-62
2023/11/04 13:08:20;;;;;;;1.60;0.57;;;;;;;;;;5115128;28;20060;-62
2023/11/04 13:10:47;;;;;;;1.38;0.57;;;;;;;;;;5114978;28;20055;-62
2023/11/04 13:13:16;;;;;;;1.55;0.80;;;;;;;;;;5114801;28;20055;-62
2023/11/04 13:15:42;;;;;;;1.65;0.40;;;;;;;;;;5114816;28;20048;-62
2023/11/04 13:18:09;;;;;;;1.58;0.68;;;;;;;;;;5114457;28;20408;-62
2023/11/04 13:20:36;;;;;;;2.33;0.63;;;;;;;;;;5114865;28;20048;-62
2023/11/04 13:23:03;;;;;;;1.30;0.70;;;;;;;;;;5114225;28;20055;-61
2023/11/04 13:25:31;;;;;;;1.77;0.60;;;;;;;;;;5114402;28;20052;-61
2023/11/04 13:27:58;;;;;;;1.20;0.60;;;;;;;;;;5114468;28;20051;-62
2023/11/04 13:30:26;;;;;;;1.58;0.60;;;;;;;;;;5114454;28;20051;-63
2023/11/04 13:32:53;;;;;;;1.70;0.80;;;;;;;;;;5114415;28;20051;-63
2023/11/04 13:35:20;;;;;;;1.20;0.55;;;;;;;;;;5114510;28;20054;-64
2023/11/04 13:37:47;;;;;;;1.55;0.77;;;;;;;;;;5114314;28;20416;-63
2023/11/04 13:40:14;;;;;;;1.33;0.68;;;;;;;;;;5113836;28;20051;-63
2023/11/04 13:42:41;;;;;;;1.42;0.60;;;;;;;;;;5114113;28;20047;-63
2023/11/04 13:45:08;;;;;;;2.38;0.82;;;;;;;;;;5114319;28;20052;-63
2023/11/04 13:47:36;;;;;;;28.95;2.42;;;;;;;;;;5114143;28;20071;-64
2023/11/04 13:50:06;;;;;;;2.25;1.08;;;;;;;;;;5113830;28;20055;-65
2023/11/04 13:52:32;;;;;;;1.42;0.70;;;;;;;;;;5114311;28;20062;-69
2023/11/04 13:55:00;;;;;;;6.72;0.90;;;;;;;;;;5113877;28;20051;-68
2023/11/04 13:57:27;;;;;;;6.50;1.10;;;;;;;;;;5113556;28;20051;-67
2023/11/04 13:59:54;;;;;;;1.95;1.33;;;;;;;;;;5114051;28;20047;-66
2023/11/04 14:02:26;;;;;;;1.77;0.90;;;;;;;;;;5113905;28;20484;-66
2023/11/04 14:04:55;;;;;;;2.20;0.90;;;;;;;;;;5114026;28;20047;-66
2023/11/04 14:07:22;;;;;;;2.17;1.20;;;;;;;;;;5114170;28;20051;-67
2023/11/04 14:09:48;;;;;;;2.00;0.82;;;;;;;;;;5113876;28;20055;-66
2023/11/04 14:12:15;;;;;;;2.47;0.93;;;;;;;;;;5114064;28;20086;-66
2023/11/04 14:14:42;;;;;;;1.15;0.73;;;;;;;;;;5113990;28;20052;-66
2023/11/04 14:17:09;;;;;;;1.67;0.70;;;;;;;;;;5113787;28;20048;-65
2023/11/04 14:19:36;;;;;;;1.38;0.70;;;;;;;;;;5113998;28;20468;-65
2023/11/04 14:22:04;;;;;;;1.50;0.80;;;;;;;;;;5114193;28;20051;-65
2023/11/04 14:24:33;;;;;;;0.85;0.57;;;;;;;;;;5113931;28;20055;-65
2023/11/04 14:27:00;;;;;;;1.85;0.75;;;;;;;;;;5113755;28;20235;-65
2023/11/04 14:29:26;;;;;;;1.15;0.70;;;;;;;;;;5113845;28;20051;-65
2023/11/04 14:31:53;;;;;;;0.90;0.57;;;;;;;;;;5113388;28;20416;-65
2023/11/04 14:34:20;;;;;;;1.40;0.77;;;;;;;;;;5113458;28;20043;-66
2023/11/04 14:36:47;;;;;;;1.60;0.70;;;;;;;;;;5113751;28;20040;-65
2023/11/04 14:39:18;;;;;;;2.58;0.98;;;;;;;;;;5113600;28;20056;-66
2023/11/04 14:41:45;;;;;;;0.93;0.60;;;;;;;;;;5113515;28;20408;-66
2023/11/04 14:44:11;;;;;;;2.65;0.73;;;;;;;;;;5113237;28;20058;-66